Philadelphia, Pennsylvania
Traffic Map
Current Weather Conditions
Philadelphia, Pennsylvania
Overcast Light Rain
Overcast
74°
Feels Like: 74°
Wind Chill: 74° Ceiling: 9000
Heat Index: 74° Visibility: 9mi
Dew Point: 64° Wind: 3mph
Humidity: 71% Direction: 190° (S)
Pressure: 29.88in Gusts: 0mph
Raw Report DataKPHL 022254Z 19003KT 9SM -RA FEW025 BKN090 OVC110 23/18 A2988 RMK AO2 RAB54 SLP117 P0000 T02330178
Traffic Incident Summary
Active as of:
Severity:
Category:
InformationThere was an issue retrieving the traffic information for this location. Please try a different location or try again shortly.
Advertisements
Track Severe Weather on mobile